Airfield :
LOGIN :

Register | Disclaimer

   EN    FR    IT 

 










Legend :    VFR   Marginal VFR   IFR   Intensive IFR   Very Intensive IFR
Visi :
Ceiling :
>= 8 km
>= 3000ft
5 to 8 km
1000 to 3000 ft
1500m to 5 km
500 to 1000 ft
800 to 1500m
200 to 500 ft
< 800m
< 200 ft
Symbols :   Thunderstorms  Fog  Heavy snow  Heavy precipitations  Wind > 20 kt
SIGMETs :     Misc.  Thunderstorms  Icing  Turbulence  Mountain Waves  Volcanic Ashes







- Airport Elevation : 1115 ft
- IATA code : GRZ


LOWG - Graz

CURRENT METAR :
  • 240750Z 35015KT 9999 FEW040 15/04 Q1022 NOSIG

EXPIRED METARs :
  • 240720Z 35013KT 9999 FEW040 15/04 Q1021 NOSIG
  • 240650Z 36014KT 9999 FEW040 15/05 Q1020 NOSIG
  • 240620Z 35014G25KT 9999 FEW040 SCT140 14/04 Q1019 NOSIG
  • 240550Z 36013KT 9999 FEW040 SCT140 14/06 Q1018 NOSIG
  • 240520Z 34008KT 9999 FEW030 SCT080 BKN110 13/08 Q1017 NOSIG

TAF COR TAF LOWG
Valid from the 24 at 06:00 until the 25 at 06:00 UTC


240515Z 2406/2506 33008KT 9999 FEW050 SCT120 TX15/2413Z TN04/2502Z
TEMPO 2407/2414 34015G33KT FEW050
BECMG 2416/2418 31003KT
No reported NOTAMs for that airfield.
4 SIGMETs reported for the Wien FIR (LOVV) :
 
Severe turbulence
LOVV SIGMET 8 VALID 240830/241200 LOWW
LOVV WIEN FIR SEV TURB FCST SW OF LINE N4705 E00915 - N4725 E01500 - N4625 E01525 SFC/FL140 STNR WKN=
Severe mountain waves
LOVV SIGMET 7 VALID 240800/241000 LOWW
LOVV WIEN FIR SEV MTW FCST S OF LINE N4650 E01010 - N4740 E01635 FL100/450 STNR NC=
SIGMET 4  cancelation
LOVV SIGMET 5 VALID 240612/240830 LOWW
LOVV WIEN FIR CNL SIGMET 4 240600/240830=
SIGMET 4  CANCELED :
Severe turbulence
LOVV SIGMET 4 VALID 240600/240830 LOWW
LOVV WIEN FIR SEV TURB FCST SE OF LINE N4640 E01545 - N4735 E01510 - N4700 E00925 SFC/FL140 STNR NC=



MET'MAP, your aeronautical weather chart ! - Copyright ORBIFLY December 2007 - Disclaimer

ORBIFLY MET'MAP TEAM :

Programming & Development : Alexandra Zaïnal
Concept & Development : Baudouin d'Aumeries
Co-Development & Prog : Marc-Olivier Méhu
Technical & hardware support : Manuel Goepfert

Contact : metmap@orbifly.com




SOURCES & CREDITS :

   NOAA